Brown Deer, Wisconsin
Current Conditions -  °F | °C
As of 2:45 PM on Monday 26 Jan 2015 (Local Time) from KMWC Reporting Station
Light Snow Light Snow  
Wind Chill: 20°   Ceiling: 3100
Heat Index: 27°   Visibility: 5mi
Dew Point: 19°   Wind: 6mph
Humidity: 74%   Direction: 150°SSE
Pressure: 29.85"   Gusts: NA
Location:  43.18°N, 87.97°W
Report Text: KMWC 262045Z AUTO 15005KT 5SM -SN SCT010 SCT018 OVC031 M03/M07 A2985
Loading
Personal Weather Stations






























Interactive Weather Map New forecast layout! Learn more

10-Day Weather Forecast

Advertisements
Track Severe Weather on mobile